Nearby METAR Reports

 

KISP - Islip, New York, USA
Distance from station: SW 4mi, 6km
Updated: Tue, 06/22/2021 1:56 am EDT
Mostly cloudy
Mostly cloudy
 Wind from SW
Wind: SW 8 mph , 13 km/h
Temperature: 73°F , 23°C
Dew Point: 68°F , 20°C
Humidity: 83%
Barometer: 29.64 inHg , 1003.7 hPa
Clouds: Mostly cloudy
Visibility: 10 miles , 16 km
Cloud details: Mostly cloudy 10000 ft
2021/06/22 05:56 KISP 220556Z AUTO 23007KT 10SM BKN100 23/20 A2964 RMK AO2 SLP036 T02280200 10228 20217 55000
KHWV - Shirley, New York, USA
Distance from station: E 10mi, 16km
Updated: Tue, 06/22/2021 1:56 am EDT
Few Clouds
Few Clouds
 Wind from S
Wind: S 5 mph , 7 km/h
Temperature: 73°F , 23°C
Dew Point: 66°F , 19°C
Humidity: 78%
Barometer: 29.64 inHg , 1003.7 hPa
Clouds: Few Clouds
Visibility: 10 miles , 16 km
Cloud details: Few Clouds 11000 ft
2021/06/22 05:56 KHWV 220556Z AUTO 19004KT 10SM FEW110 23/19 A2964 RMK AO2 SLP037 T02280189 10228 20217 55004
 
KFRG - Farmingdale, New York, USA
Distance from station: WSW 20mi, 33km
Updated: Tue, 06/22/2021 1:53 am EDT
Mostly cloudy
Mostly cloudy
 Wind from SW
Wind: SW 7 mph , 11 km/h
Temperature: 75°F , 24°C
Dew Point: 66°F , 19°C
Humidity: 74%
Barometer: 29.64 inHg , 1003.7 hPa
Clouds: Mostly cloudy
Visibility: 10 miles , 16 km
Cloud details: Mostly cloudy 11000 ft
2021/06/22 05:53 KFRG 220553Z AUTO 23006KT 10SM BKN110 24/19 A2964 RMK AO2 SLP037 T02390189 10239 20222 53001
KBDR - Bridgeport, Connecticut, USA
Distance from station: N 23mi, 37km
Updated: Tue, 06/22/2021 1:52 am EDT
Clear
Clear
 Wind from SW
Wind: SW 6 mph , 9 km/h
Temperature: 72°F , 22°C
Dew Point: 68°F , 20°C
Humidity: 88%
Barometer: 29.62 inHg , 1003 hPa
Clouds: Clear
Visibility: 10 miles , 16 km
2021/06/22 05:52 KBDR 220552Z AUTO 22005KT 10SM CLR 22/20 A2962 RMK AO2 SLP031 T02220200 10239 20217 55003
 
KFOK - Westhampton Beac, New York, USA
Distance from station: E 23mi, 37km
Updated: Tue, 06/22/2021 1:53 am EDT
Few Clouds
Few Clouds
 Wind from SW
Wind: SW 7 mph , 11 km/h
Temperature: 70°F , 21°C
Dew Point: 66°F , 19°C
Humidity: 88%
Barometer: 29.65 inHg , 1004.1 hPa
Clouds: Few Clouds
Visibility: 10 miles , 16 km
Cloud details: Few Clouds 11000 ft
2021/06/22 05:53 KFOK 220553Z AUTO 23006KT 10SM FEW110 21/19 A2965 RMK AO2 SLP041 T02060194 10217 20200 55007
KHVN - New Haven/Tweed, Connecticut, USA
Distance from station: NNE 31mi, 50km
Updated: Tue, 06/22/2021 1:53 am EDT
Clear
Clear
 Wind from calm
Wind: Calm
Temperature: 72°F , 22°C
Dew Point: 70°F , 21°C
Humidity: 94%
Barometer: 29.62 inHg , 1003 hPa
Clouds: Clear
Visibility: 10 miles , 16 km
2021/06/22 05:53 KHVN 220553Z AUTO 00000KT 10SM CLR 22/21 A2962 RMK AO2 SLP029 T02220206 10233 20217 56007
 
KHPN - White Plains, New York, USA
Distance from station: WNW 37mi, 60km
Updated: Tue, 06/22/2021 1:56 am EDT
Mostly cloudy
Mostly cloudy
 Wind from varies
Wind: varies 6 mph , 9 km/h
Temperature: 73°F , 23°C
Dew Point: 66°F , 19°C
Humidity: 78%
Barometer: 29.64 inHg , 1003.7 hPa
Clouds: Mostly cloudy
Visibility: 10 miles , 16 km
Cloud details: Mostly cloudy 11000 ft
2021/06/22 05:56 KHPN 220556Z VRB05KT 10SM BKN110 23/19 A2964 RMK AO2 SLP030 T02330189 10244 20222 53004
KJFK - Nyc/Jfk Arpt, New York, USA
Distance from station: WSW 40mi, 64km
Updated: Tue, 06/22/2021 1:51 am EDT
Overcast
Overcast
 Wind from SW
Wind: SW 13 mph , 20 km/h
Temperature: 73°F , 23°C
Dew Point: 68°F , 20°C
Humidity: 83%
Barometer: 29.65 inHg , 1004.1 hPa
Clouds: Overcast
Visibility: 10 miles , 16 km
Cloud details: Few Clouds 4000 ft
Overcast 15000 ft
2021/06/22 05:51 KJFK 220551Z 23011KT 10SM FEW040 OVC150 23/20 A2965 RMK AO2 SLP040 OCNL LTGIC DSNT S CB DSNT S MOV E 60000 T02280200 10244 20217 53009
 
KDXR - Danbury, Connecticut, USA
Distance from station: NNW 42mi, 68km
Updated: Tue, 06/22/2021 1:53 am EDT
Few Clouds
Few Clouds
 Wind from calm
Wind: Calm
Temperature: 72°F , 22°C
Dew Point: 70°F , 21°C
Humidity: 94%
Barometer: 29.64 inHg , 1003.7 hPa
Clouds: Few Clouds
Visibility: 10 miles , 16 km
Cloud details: Few Clouds 11000 ft
2021/06/22 05:53 KDXR 220553Z AUTO 00000KT 10SM FEW110 22/21 A2964 RMK AO2 SLP033 60002 T02220206 10256 20222 56004
KHTO - East Hampton, New York, USA
Distance from station: E 43mi, 69km
Updated: Tue, 06/22/2021 2:35 am EDT
Overcast
Overcast
 Wind from WSW
Wind: WSW 7 mph , 11 km/h
Temperature: 70°F , 21°C
Dew Point: 66°F , 19°C
Humidity: 88%
Barometer: 29.64 inHg , 1003.7 hPa
Clouds: Overcast
Visibility: 10 miles , 16 km
Cloud details: Overcast 11000 ft
2021/06/22 06:35 KHTO 220635Z AUTO 24006KT 10SM OVC110 21/19 A2964 RMK AO2 T02060191
 
KOXC - Oxford/Waterbury, Connecticut, USA
Distance from station: N 43mi, 70km
Updated: Tue, 06/22/2021 1:51 am EDT
Light rain, Partly cloudy
Light rain, Partly cloudy
 Wind from S
Wind: S 3 mph , 6 km/h
Temperature: 70°F , 21°C
Dew Point: 70°F , 21°C
Humidity: 100%
Barometer: 29.65 inHg , 1004.1 hPa
Summary: Light rain
Clouds: Partly cloudy
Visibility: 10 miles , 16 km
Cloud details: Few Clouds 3100 ft
Partly cloudy 11000 ft
2021/06/22 05:51 KOXC 220551Z AUTO 18003KT 10SM -RA FEW031 SCT110 21/21 A2965 RMK AO2 RAB31 SLP048 P0000 60000 T02110211 10239 20211 56006
KLGA - Nyc/La Guardia, New York, USA
Distance from station: W 44mi, 70km
Updated: Tue, 06/22/2021 1:51 am EDT
Overcast
Overcast
 Wind from SSW
Wind: SSW 7 mph , 11 km/h
Temperature: 79°F , 26°C
Dew Point: 64°F , 18°C
Humidity: 61%
Barometer: 29.63 inHg , 1003.4 hPa
Clouds: Overcast
Visibility: 10 miles , 16 km
Cloud details: Mostly cloudy 14000 ft
Overcast 20000 ft
2021/06/22 05:51 KLGA 220551Z 21006KT 10SM BKN140 OVC200 26/18 A2963 RMK AO2 SLP032 T02610183 10278 20250 53007
 
KSNC - Chester, Connecticut, USA
Distance from station: NE 47mi, 76km
Updated: Mon, 06/21/2021 8:55 pm EDT
NOT Current
Clear
Clear
 Wind from S
Wind: S 6 mph , 9 km/h
Temperature: 70°F , 21°C
Dew Point: 70°F , 21°C
Humidity: 100%
Barometer: 29.66 inHg , 1004.4 hPa
Clouds: Clear
Visibility: 10 miles , 16 km
2021/06/22 00:55 KSNC 220055Z AUTO 19005KT 10SM CLR 21/21 A2966 RMK AO2
KMMK - Meriden, Connecticut, USA
Distance from station: NNE 48mi, 77km
Updated: Tue, 06/22/2021 1:53 am EDT
Clear
Clear
 Wind from calm
Wind: Calm
Temperature: 72°F , 22°C
Dew Point: 66°F , 19°C
Humidity: 83%
Barometer: 29.62 inHg , 1003 hPa
Clouds: Clear
Visibility: 10 miles , 16 km
2021/06/22 05:53 KMMK 220553Z AUTO 00000KT 10SM CLR 22/19 A2962 RMK AO2 SLP027 T02170194 10250 20217 56007
 
KNYC - Nyc/Central Park, New York, USA
Distance from station: W 48mi, 77km
Updated: Tue, 06/22/2021 1:51 am EDT
Clear
Clear
 
Temperature: 75°F , 24°C
Dew Point: 66°F , 19°C
Humidity: 74%
Barometer: 29.66 inHg , 1004.4 hPa
Clouds: Clear
Visibility: 10 miles , 16 km
2021/06/22 05:51 KNYC 220551Z AUTO 10SM CLR 24/19 A2966 RMK AO2 SLP034 60000 T02440189 10272 20244 53008 $